Time;durP1;ratioP1;P1;durP2;ratioP2;P2;SDS_P1;SDS_P2;PMS_P1;PMS_P2;Temp;Humidity;BMP_temperature;BMP_pressure;BME280_temperature;BME280_humidity;BME280_pressure;Samples;Min_cycle;Max_cycle;Signal;HPM_P1;HPM_P2
2022/08/23 00:01:07;;;;;;;25.40;3.38;;;;;;;19.98;100.00;98904.09;5153206;27;20137;-52
2022/08/23 00:03:34;;;;;;;22.08;4.13;;;;;;;20.01;100.00;98905.22;5153623;27;20086;-50
2022/08/23 00:06:01;;;;;;;30.00;3.22;;;;;;;20.04;100.00;98918.28;5153310;27;20101;-54
2022/08/23 00:08:28;;;;;;;21.95;3.20;;;;;;;19.96;100.00;98969.75;5153188;27;20137;-52
2022/08/23 00:10:55;;;;;;;12.38;3.08;;;;;;;19.87;100.00;98950.88;5153161;27;20046;-50
2022/08/23 00:13:21;;;;;;;18.08;3.08;;;;;;;19.64;100.00;98957.34;5153180;27;20046;-52
2022/08/23 00:15:47;;;;;;;21.25;3.30;;;;;;;19.83;100.00;98972.44;5153055;27;20055;-50
2022/08/23 00:18:15;;;;;;;13.93;2.83;;;;;;;19.68;100.00;98993.44;5152894;27;20051;-49
2022/08/23 00:20:42;;;;;;;35.28;4.32;;;;;;;19.38;100.00;98994.44;5153109;27;20133;-52
2022/08/23 00:23:08;;;;;;;14.70;3.50;;;;;;;19.65;100.00;99011.75;5152779;27;20565;-51
2022/08/23 00:25:34;;;;;;;15.05;4.78;;;;;;;19.35;100.00;99025.84;5153159;27;20142;-52
2022/08/23 00:28:01;;;;;;;28.83;3.78;;;;;;;19.62;100.00;99134.16;5152973;27;20051;-50
2022/08/23 00:30:28;;;;;;;32.75;4.32;;;;;;;19.61;100.00;99086.09;5152984;27;20054;-53
2022/08/23 00:32:54;;;;;;;19.77;3.05;;;;;;;19.50;100.00;99155.81;5153100;27;20043;-50
2022/08/23 00:35:21;;;;;;;19.70;3.40;;;;;;;19.49;100.00;99161.78;5152908;27;20514;-51
2022/08/23 00:37:48;;;;;;;29.67;4.57;;;;;;;19.36;100.00;99175.56;5153133;27;20558;-53
2022/08/23 00:40:17;;;;;;;17.35;3.38;;;;;;;19.20;100.00;99201.22;5152927;27;20132;-50
2022/08/23 00:48:26;;;;;;;21.52;4.40;;;;;;;19.11;100.00;99278.00;5152725;27;20574;-53
2022/08/23 00:50:59;;;;;;;33.78;5.20;;;;;;;19.19;100.00;99260.00;5152351;27;20137;-53
2022/08/23 00:53:30;;;;;;;22.77;3.55;;;;;;;19.15;100.00;99245.38;5152518;27;20051;-51
2022/08/23 00:56:02;;;;;;;23.70;3.25;;;;;;;19.23;100.00;99252.41;5152674;27;20051;-52
2022/08/23 00:58:29;;;;;;;23.50;4.68;;;;;;;19.16;100.00;99264.41;5152322;27;20076;-52
2022/08/23 01:00:59;;;;;;;28.15;5.50;;;;;;;19.08;100.00;99274.06;5152203;27;20522;-53
2022/08/23 01:03:28;;;;;;;26.38;5.13;;;;;;;19.23;100.00;99269.09;5152310;27;20146;-53
2022/08/23 01:06:05;;;;;;;17.73;3.88;;;;;;;19.21;100.00;99235.34;5152366;27;20142;-52
2022/08/23 01:08:33;;;;;;;26.20;3.38;;;;;;;19.09;100.00;99277.63;5152295;27;20082;-53
2022/08/23 01:11:06;;;;;;;30.50;3.38;;;;;;;19.11;100.00;99267.66;5152050;27;20137;-54
2022/08/23 01:13:39;;;;;;;15.10;3.78;;;;;;;19.12;100.00;99265.66;5152261;27;20522;-53
2022/08/23 01:16:09;;;;;;;22.25;4.50;;;;;;;18.94;100.00;99315.94;5151907;27;20053;-49
2022/08/23 01:18:37;;;;;;;25.45;4.78;;;;;;;19.08;100.00;99331.63;5152067;27;20046;-52
2022/08/23 01:21:12;;;;;;;26.40;3.35;;;;;;;18.75;100.00;99390.38;5151897;27;20046;-52
2022/08/23 01:23:43;;;;;;;28.40;5.47;;;;;;;18.91;100.00;99397.34;5152231;27;20062;-51
2022/08/23 01:26:10;;;;;;;23.33;3.63;;;;;;;18.64;100.00;99450.78;5151841;27;20051;-53
2022/08/23 01:28:38;;;;;;;26.75;3.17;;;;;;;18.81;100.00;99435.91;5151962;27;20078;-53
2022/08/23 01:31:05;;;;;;;21.25;5.07;;;;;;;18.78;100.00;99435.97;5152147;27;20120;-54
2022/08/23 01:33:31;;;;;;;21.52;4.82;;;;;;;18.79;100.00;99413.34;5151861;27;20043;-49
2022/08/23 01:35:58;;;;;;;24.52;4.15;;;;;;;18.79;100.00;99437.53;5151935;27;20141;-53
2022/08/23 01:38:25;;;;;;;24.23;3.15;;;;;;;18.66;100.00;99475.34;5151802;27;20055;-50
2022/08/23 01:40:52;;;;;;;27.27;4.72;;;;;;;18.65;100.00;99502.31;5151739;27;20046;-52
2022/08/23 01:43:20;;;;;;;15.15;2.78;;;;;;;18.54;100.00;99519.09;5151747;27;20484;-53
2022/08/23 01:45:47;;;;;;;24.38;3.33;;;;;;;18.42;100.00;99547.34;5151627;27;20073;-53
2022/08/23 01:48:15;;;;;;;17.20;3.08;;;;;;;18.36;100.00;99557.31;5151610;27;20146;-51
2022/08/23 01:50:41;;;;;;;22.30;5.30;;;;;;;18.34;100.00;99574.38;5151499;27;20093;-52
2022/08/23 01:53:08;;;;;;;20.80;3.42;;;;;;;18.35;100.00;99584.25;5151740;27;20058;-54
2022/08/23 01:55:35;;;;;;;27.50;3.85;;;;;;;18.20;100.00;99612.53;5151373;27;20047;-49
2022/08/23 01:58:04;;;;;;;16.35;3.55;;;;;;;18.22;100.00;99624.00;5151548;27;20080;-50
2022/08/23 02:00:34;;;;;;;27.50;3.45;;;;;;;18.17;100.00;99633.56;5151334;27;20051;-51
2022/08/23 02:03:01;;;;;;;13.90;3.00;;;;;;;18.25;100.00;99623.19;5151424;27;20051;-53
2022/08/23 02:05:28;;;;;;;19.95;4.03;;;;;;;18.17;100.00;99611.34;5151416;27;20577;-51
2022/08/23 02:07:54;;;;;;;29.38;4.07;;;;;;;18.23;100.00;99615.28;5151466;27;20058;-51
2022/08/23 02:10:22;;;;;;;16.83;3.13;;;;;;;17.95;100.00;99632.06;5151284;27;20522;-53
2022/08/23 02:12:49;;;;;;;18.83;3.83;;;;;;;18.14;100.00;99637.13;5151096;27;20059;-53
2022/08/23 02:15:16;;;;;;;25.05;4.80;;;;;;;18.03;100.00;99636.41;5151113;27;20043;-51
2022/08/23 02:17:43;;;;;;;20.02;4.82;;;;;;;17.95;100.00;99640.38;5151325;27;20141;-53
2022/08/23 02:20:10;;;;;;;20.50;3.30;;;;;;;17.94;100.00;99658.22;5151422;27;20046;-50
2022/08/23 02:22:38;;;;;;;21.70;3.70;;;;;;;17.84;100.00;99654.31;5151175;27;20137;-53
2022/08/23 02:25:05;;;;;;;18.33;3.30;;;;;;;17.85;100.00;99656.66;5151274;27;20046;-50
2022/08/23 02:27:32;;;;;;;23.80;3.65;;;;;;;17.82;100.00;99656.69;5150952;27;20059;-52
2022/08/23 02:29:58;;;;;;;24.30;5.60;;;;;;;17.78;100.00;99673.34;5150928;27;20513;-50
2022/08/23 02:32:25;;;;;;;19.23;4.63;;;;;;;17.74;100.00;99671.75;5151056;27;20047;-49
2022/08/23 02:34:52;;;;;;;18.10;3.53;;;;;;;17.83;100.00;99675.72;5151065;27;20055;-50
2022/08/23 02:37:18;;;;;;;24.00;3.45;;;;;;;17.74;100.00;99682.84;5150768;27;20050;-50
2022/08/23 02:39:44;;;;;;;15.57;4.50;;;;;;;17.83;100.00;99683.25;5150976;27;20078;-50
2022/08/23 02:42:11;;;;;;;21.90;4.25;;;;;;;17.81;100.00;99677.28;5150773;27;20080;-49
2022/08/23 02:44:38;;;;;;;22.35;3.03;;;;;;;17.85;100.00;99689.16;5150834;27;20093;-50
2022/08/23 02:47:07;;;;;;;29.60;4.45;;;;;;;17.78;100.00;99689.19;5151114;27;20050;-50
2022/08/23 02:49:35;;;;;;;15.65;3.45;;;;;;;17.87;100.00;99693.13;5150835;27;20097;-49
2022/08/23 02:52:01;;;;;;;20.00;5.28;;;;;;;17.83;100.00;99688.78;5150954;27;20378;-49
2022/08/23 02:54:28;;;;;;;17.42;3.85;;;;;;;17.78;100.00;99695.53;5150709;27;20078;-49
2022/08/23 02:56:54;;;;;;;23.58;4.22;;;;;;;17.84;100.00;99701.47;5150971;27;20387;-49
2022/08/23 02:59:21;;;;;;;18.42;3.65;;;;;;;17.87;100.00;99701.44;5150757;27;20082;-49
2022/08/23 03:01:47;;;;;;;17.98;3.72;;;;;;;17.84;100.00;99693.91;5150669;27;20188;-53
2022/08/23 03:04:13;;;;;;;20.33;3.53;;;;;;;17.83;100.00;99692.34;5150448;27;20433;-49
2022/08/23 03:06:40;;;;;;;16.27;4.00;;;;;;;17.68;100.00;99706.63;5151102;27;20142;-50
2022/08/23 03:09:07;;;;;;;14.88;2.97;;;;;;;17.76;100.00;99709.03;5150647;27;20081;-50
2022/08/23 03:11:33;;;;;;;19.88;3.83;;;;;;;17.73;100.00;99707.00;5154099;27;20142;-49
2022/08/23 03:14:00;;;;;;;14.13;3.30;;;;;;;17.72;100.00;99716.50;5154189;27;20467;-50
2022/08/23 03:16:27;;;;;;;23.73;3.70;;;;;;;17.73;100.00;99709.78;5153946;27;20443;-54
2022/08/23 03:18:54;;;;;;;30.02;3.60;;;;;;;17.83;100.00;99714.53;5154209;27;20174;-50
2022/08/23 03:21:20;;;;;;;17.73;3.42;;;;;;;17.79;100.00;99719.31;5153996;27;20133;-53
2022/08/23 03:23:47;;;;;;;21.17;3.50;;;;;;;17.73;100.00;99731.97;5154086;27;20050;-52
2022/08/23 03:26:15;;;;;;;15.35;3.78;;;;;;;17.75;100.00;99735.13;5153853;27;20137;-50
2022/08/23 03:28:43;;;;;;;18.90;4.03;;;;;;;17.79;100.00;99729.59;5154031;27;20058;-50
2022/08/23 03:31:10;;;;;;;17.70;3.38;;;;;;;17.93;100.00;99739.88;5153828;27;20560;-51
2022/08/23 03:33:37;;;;;;;20.33;4.50;;;;;;;17.98;100.00;99726.38;5153929;27;20134;-52
2022/08/23 03:36:05;;;;;;;23.15;5.25;;;;;;;18.02;100.00;99726.34;5153646;27;20043;-52
2022/08/23 03:38:32;;;;;;;15.15;4.03;;;;;;;17.88;100.00;99732.75;5153700;27;20042;-51
2022/08/23 03:41:00;;;;;;;24.42;3.70;;;;;;;18.01;100.00;99738.66;5153978;27;20054;-50
2022/08/23 03:43:26;;;;;;;15.70;2.97;;;;;;;18.11;100.00;99724.75;5153855;27;20046;-49
2022/08/23 03:45:52;;;;;;;16.35;3.22;;;;;;;18.49;100.00;99699.19;5153911;27;20137;-52
2022/08/23 03:48:19;;;;;;;23.73;3.60;;;;;;;18.63;100.00;99679.69;5153860;27;20099;-52
2022/08/23 03:50:45;;;;;;;28.13;5.88;;;;;;;18.67;100.00;99661.00;5153859;27;20078;-50
2022/08/23 03:53:12;;;;;;;25.83;5.22;;;;;;;18.69;100.00;99643.91;5153620;27;20047;-50
2022/08/23 03:55:38;;;;;;;23.30;3.70;;;;;;;18.80;100.00;99628.00;5153661;27;20506;-50
2022/08/23 03:58:05;;;;;;;20.55;3.28;;;;;;;19.25;100.00;99555.72;5153423;27;20556;-49
2022/08/23 04:00:32;;;;;;;26.55;5.88;;;;;;;19.30;100.00;99491.34;5153382;27;20047;-51
2022/08/23 04:02:58;;;;;;;23.27;3.05;;;;;;;19.40;100.00;99423.69;5153237;27;20051;-51
2022/08/23 04:05:24;;;;;;;24.05;5.55;;;;;;;19.55;100.00;99404.00;5153213;27;20082;-50
2022/08/23 04:07:51;;;;;;;19.42;4.40;;;;;;;19.42;100.00;99334.28;5153185;27;20093;-53
2022/08/23 04:10:17;;;;;;;26.95;4.88;;;;;;;19.66;100.00;99319.25;5153547;27;20153;-54
2022/08/23 04:12:44;;;;;;;28.42;5.38;;;;;;;20.06;100.00;99224.75;5153237;27;20046;-53
2022/08/23 04:15:12;;;;;;;39.50;4.60;;;;;;;20.28;100.00;99127.66;5153240;27;20055;-50
2022/08/23 04:17:38;;;;;;;25.38;5.38;;;;;;;20.14;100.00;99089.00;5153170;27;20059;-53
2022/08/23 04:20:06;;;;;;;13.02;3.35;;;;;;;20.19;100.00;99119.91;5153254;27;20137;-50
2022/08/23 04:22:32;;;;;;;14.93;3.35;;;;;;;20.39;100.00;99083.66;5152269;27;20074;-52
2022/08/23 04:25:00;;;;;;;22.02;3.75;;;;;;;20.43;100.00;99013.97;5153019;27;20503;-50
2022/08/23 04:27:27;;;;;;;26.20;4.28;;;;;;;20.08;100.00;99055.31;5153180;27;20062;-50
2022/08/23 04:29:53;;;;;;;24.20;3.65;;;;;;;20.02;100.00;99126.63;5152909;27;20057;-52
2022/08/23 04:32:20;;;;;;;26.65;4.57;;;;;;;20.10;100.00;99080.72;5152997;27;20053;-51
2022/08/23 04:34:48;;;;;;;27.35;4.20;;;;;;;20.46;100.00;98999.19;5152884;27;20107;-53
2022/08/23 04:37:14;;;;;;;24.65;4.70;;;;;;;20.99;100.00;98895.91;5153057;27;20050;-51
2022/08/23 04:42:39;;;;;;;24.02;3.85;;;;;;;21.44;100.00;98716.56;5089103;28;20127;-53
2022/08/23 04:45:07;;;;;;;14.27;3.60;;;;;;;20.96;100.00;98760.25;5088932;28;20052;-52
2022/08/23 04:47:37;;;;;;;16.95;3.75;;;;;;;20.98;100.00;98783.66;5116928;27;20046;-52
2022/08/23 04:50:05;;;;;;;17.48;3.35;;;;;;;21.10;100.00;98724.38;5152731;27;20133;-52
2022/08/23 04:52:31;;;;;;;21.27;3.47;;;;;;;21.37;100.00;98633.91;5152422;27;20536;-50
2022/08/23 04:54:57;;;;;;;16.75;3.55;;;;;;;21.32;100.00;98640.81;5152463;27;20055;-50
2022/08/23 04:57:24;;;;;;;26.80;5.00;;;;;;;21.88;100.00;98603.00;5152122;27;20659;-51
2022/08/23 04:59:50;;;;;;;13.55;3.83;;;;;;;21.79;100.00;98496.91;5152495;27;20126;-53
2022/08/23 05:02:17;;;;;;;12.82;3.47;;;;;;;21.86;100.00;98493.88;5152079;27;20066;-53
2022/08/23 05:04:44;;;;;;;14.95;3.80;;;;;;;22.08;100.00;98446.34;5152371;27;20050;-50
2022/08/23 05:07:10;;;;;;;25.35;5.70;;;;;;;21.95;100.00;98460.41;5152583;27;20480;-50
2022/08/23 05:09:36;;;;;;;21.90;3.20;;;;;;;22.10;100.00;98438.31;5152400;27;20134;-50
2022/08/23 05:12:03;;;;;;;16.02;3.75;;;;;;;22.21;100.00;98385.63;5152257;27;20077;-51
2022/08/23 05:14:29;;;;;;;21.45;4.10;;;;;;;22.29;100.00;98366.53;5152080;27;20078;-57
2022/08/23 05:16:56;;;;;;;17.92;5.00;;;;;;;22.32;100.00;98360.03;5152133;27;20082;-53
2022/08/23 05:19:23;;;;;;;9.32;3.08;;;;;;;22.07;100.00;98384.19;5152016;27;20069;-61
2022/08/23 05:21:50;;;;;;;21.92;3.53;;;;;;;22.60;100.00;98352.47;5150960;27;20496;-57
2022/08/23 05:24:19;;;;;;;19.77;4.30;;;;;;;23.32;100.00;98338.81;5151453;27;20138;-52
2022/08/23 05:26:45;;;;;;;24.73;5.35;;;;;;;23.03;100.00;98333.81;5151843;27;20062;-56
2022/08/23 05:29:11;;;;;;;26.08;6.13;;;;;;;22.54;100.00;98345.94;5151787;27;20115;-54
2022/08/23 05:31:38;;;;;;;15.98;3.55;;;;;;;21.99;100.00;98379.34;5151899;27;20051;-57
2022/08/23 05:34:05;;;;;;;25.42;5.78;;;;;;;22.84;100.00;98377.75;5151373;27;20054;-58
2022/08/23 05:36:31;;;;;;;21.00;4.55;;;;;;;23.11;100.00;98357.38;5151874;27;20055;-59
2022/08/23 05:38:58;;;;;;;25.70;5.85;;;;;;;23.51;100.00;98347.16;5151799;27;20119;-56
2022/08/23 05:41:24;;;;;;;10.63;3.42;;;;;;;23.51;100.00;98349.97;5151669;27;20042;-58
2022/08/23 05:43:50;;;;;;;23.75;4.97;;;;;;;24.27;100.00;98348.63;5151999;27;20091;-54
2022/08/23 05:46:18;;;;;;;17.08;5.18;;;;;;;24.00;100.00;98362.81;5151777;27;20466;-57
2022/08/23 05:48:47;;;;;;;23.98;5.25;;;;;;;24.68;100.00;98373.38;5151516;27;20051;-61
2022/08/23 05:51:15;;;;;;;23.60;4.80;;;;;;;24.34;100.00;98376.25;5151379;27;20134;-57
2022/08/23 05:53:43;;;;;;;21.95;5.03;;;;;;;24.40;100.00;98360.38;5151772;27;20082;-59
2022/08/23 05:56:12;;;;;;;23.20;5.13;;;;;;;24.12;100.00;98368.16;5151429;27;20053;-59
2022/08/23 05:58:39;;;;;;;25.17;4.68;;;;;;;24.41;100.00;98381.53;5151473;27;20141;-63
2022/08/23 06:01:05;;;;;;;27.17;5.25;;;;;;;24.94;100.00;98412.88;5151260;27;20082;-60
2022/08/23 06:03:32;;;;;;;18.65;4.60;;;;;;;25.65;100.00;98439.16;5151506;27;20054;-60
2022/08/23 06:05:58;;;;;;;19.02;4.75;;;;;;;25.17;100.00;98434.50;5151379;27;20062;-60
2022/08/23 06:08:25;;;;;;;20.38;4.65;;;;;;;25.86;100.00;98493.34;5151350;27;20082;-59
2022/08/23 06:10:59;;;;;;;20.63;4.80;;;;;;;26.24;100.00;98512.09;5151255;27;20095;-62
2022/08/23 06:13:26;;;;;;;18.20;5.15;;;;;;;26.45;100.00;98577.56;5151509;27;20047;-56
2022/08/23 06:15:52;;;;;;;19.88;5.03;;;;;;;26.05;100.00;98584.56;5151321;27;20129;-60
2022/08/23 06:18:19;;;;;;;18.00;4.47;;;;;;;26.16;100.00;98559.50;5150922;27;20093;-59
2022/08/23 06:20:45;;;;;;;22.90;4.93;;;;;;;26.02;100.00;98547.03;5151290;27;20050;-56
2022/08/23 06:23:12;;;;;;;23.92;5.28;;;;;;;25.64;100.00;98519.00;5150839;27;20082;-53
2022/08/23 06:25:39;;;;;;;25.90;6.07;;;;;;;25.56;100.00;98521.44;5151047;27;20137;-61
2022/08/23 06:28:05;;;;;;;19.77;4.57;;;;;;;25.18;100.00;98446.50;5150939;27;20507;-60
2022/08/23 06:30:32;;;;;;;25.40;5.00;;;;;;;25.06;100.00;98446.25;5151211;27;20082;-62
2022/08/23 06:32:58;;;;;;;20.17;5.82;;;;;;;24.95;100.00;98434.06;5151012;27;20223;-63
2022/08/23 06:35:25;;;;;;;17.92;5.38;;;;;;;25.96;100.00;98473.13;5151236;27;20478;-63
2022/08/23 06:37:51;;;;;;;18.50;5.45;;;;;;;25.74;100.00;98498.00;5150863;27;20054;-62
2022/08/23 06:40:17;;;;;;;18.90;5.22;;;;;;;26.23;100.00;98531.00;5151005;27;20506;-62
2022/08/23 06:42:43;;;;;;;23.23;5.43;;;;;;;26.73;100.00;98555.53;5150773;27;20082;-64
2022/08/23 06:45:10;;;;;;;17.75;5.43;;;;;;;25.98;100.00;98545.66;5152583;27;20078;-63
2022/08/23 06:47:37;;;;;;;19.30;5.85;;;;;;;26.02;100.00;98529.38;5154583;27;20133;-63
2022/08/23 06:50:04;;;;;;;16.90;5.70;;;;;;;26.34;100.00;98583.00;5154310;27;20082;-61
2022/08/23 06:52:31;;;;;;;19.48;5.38;;;;;;;26.75;100.00;98607.16;5154315;27;20082;-63
2022/08/23 06:54:57;;;;;;;18.90;5.80;;;;;;;26.23;100.00;98623.72;5154211;27;20050;-63
2022/08/23 06:57:23;;;;;;;21.33;4.97;;;;;;;26.36;100.00;98629.03;5154261;27;20406;-63
2022/08/23 06:59:49;;;;;;;18.13;5.40;;;;;;;26.82;100.00;98630.53;5154231;27;20082;-61
2022/08/23 07:02:16;;;;;;;24.10;5.28;;;;;;;27.08;100.00;98684.09;5154503;27;20102;-63
2022/08/23 07:04:43;;;;;;;21.00;4.70;;;;;;;25.50;100.00;98599.91;5153837;27;20053;-65
2022/08/23 07:07:09;;;;;;;19.42;5.78;;;;;;;26.88;100.00;98634.19;5154243;27;20086;-63
2022/08/23 07:09:36;;;;;;;21.92;5.00;;;;;;;27.63;100.00;98683.34;5154088;27;20050;-58
2022/08/23 07:12:03;;;;;;;18.13;4.95;;;;;;;28.45;100.00;98745.25;5153778;27;20047;-60
2022/08/23 07:14:30;;;;;;;19.98;5.03;;;;;;;28.35;100.00;98728.44;5154052;27;20143;-60
2022/08/23 07:16:58;;;;;;;12.13;5.13;;;;;;;28.40;100.00;98743.16;5153932;27;20057;-61
2022/08/23 07:19:27;;;;;;;22.92;5.60;;;;;;;28.36;100.00;98729.25;5153753;27;20501;-60
2022/08/23 07:21:54;;;;;;;20.92;5.25;;;;;;;26.83;100.00;98638.50;5153879;27;20133;-58
2022/08/23 07:24:22;;;;;;;18.15;5.22;;;;;;;26.55;100.00;98595.88;5153775;27;20137;-58
2022/08/23 07:26:50;;;;;;;17.98;5.43;;;;;;;26.86;100.00;98552.38;5153683;27;20103;-57
2022/08/23 07:29:18;;;;;;;18.15;6.30;;;;;;;26.51;100.00;98600.94;5153611;27;20051;-55
2022/08/23 07:31:47;;;;;;;27.70;5.55;;;;;;;28.71;100.00;98683.94;5153662;27;20085;-62
2022/08/23 07:34:13;;;;;;;18.10;5.70;;;;;;;28.12;100.00;98693.66;5153896;27;20088;-64
2022/08/23 07:36:41;;;;;;;23.50;5.57;;;;;;;28.77;100.00;98706.56;5153539;27;20115;-63
2022/08/23 07:39:09;;;;;;;18.80;4.88;;;;;;;28.43;100.00;98737.28;5153680;27;20078;-64
2022/08/23 07:41:37;;;;;;;22.45;6.00;;;;;;;27.86;100.00;98710.53;5153424;27;20089;-64
2022/08/23 07:44:05;;;;;;;18.27;5.35;;;;;;;27.38;100.00;98668.69;5153504;27;20141;-59
2022/08/23 07:46:32;;;;;;;22.25;5.57;;;;;;;27.09;100.00;98598.44;5153703;27;20103;-54
2022/08/23 07:49:02;;;;;;;14.63;5.00;;;;;;;25.71;100.00;98588.78;5153656;27;20046;-61
2022/08/23 07:51:31;;;;;;;16.23;5.40;;;;;;;26.19;100.00;98493.13;5153247;27;20051;-64
2022/08/23 07:53:57;;;;;;;15.73;5.15;;;;;;;26.34;100.00;98532.44;5153654;27;20134;-63
2022/08/23 07:56:25;;;;;;;24.45;5.65;;;;;;;26.65;100.00;98517.81;5153320;27;20133;-61
2022/08/23 07:58:51;;;;;;;19.05;5.50;;;;;;;27.79;100.00;98617.22;5153164;27;20089;-63
2022/08/23 08:01:21;;;;;;;21.70;5.78;;;;;;;28.75;100.00;98666.78;5153461;27;20082;-64
2022/08/23 08:03:51;;;;;;;21.08;6.03;;;;;;;29.06;100.00;98680.13;5153121;27;20042;-61
2022/08/23 08:06:21;;;;;;;15.73;5.50;;;;;;;29.23;100.00;98712.06;5153187;27;20414;-62
2022/08/23 08:08:48;;;;;;;19.85;5.50;;;;;;;29.68;100.00;98731.31;5153066;27;20096;-65
2022/08/23 08:11:17;;;;;;;18.83;5.15;;;;;;;29.99;100.00;98756.63;5153027;27;20146;-64
2022/08/23 08:13:45;;;;;;;21.52;5.47;;;;;;;29.53;100.00;98779.47;5153009;27;20138;-63
2022/08/23 08:16:21;;;;;;;19.95;5.20;;;;;;;30.46;100.00;98761.91;5152965;27;20055;-63
2022/08/23 08:18:47;;;;;;;22.08;5.70;;;;;;;30.87;100.00;98789.78;5152818;27;20505;-66
2022/08/23 08:21:15;;;;;;;24.02;5.45;;;;;;;31.56;100.00;98828.91;5152798;27;20061;-62
2022/08/23 08:23:41;;;;;;;21.17;4.63;;;;;;;30.42;100.00;98875.28;5153079;27;20084;-61
2022/08/23 08:26:08;;;;;;;17.23;4.47;;;;;;;30.29;100.00;98855.19;5153152;27;20054;-64
2022/08/23 08:28:36;;;;;;;15.63;4.50;;;;;;;29.02;100.00;98820.66;5152924;27;20086;-61
2022/08/23 08:31:03;;;;;;;20.80;4.78;;;;;;;28.93;100.00;98823.66;5152627;27;20047;-57
2022/08/23 08:33:30;;;;;;;21.60;4.85;;;;;;;28.23;100.00;98748.59;5152557;27;20517;-62
2022/08/23 08:35:57;;;;;;;16.50;4.65;;;;;;;29.43;100.00;98809.19;5152719;27;20505;-65
2022/08/23 08:38:24;;;;;;;12.75;4.38;;;;;;;30.24;100.00;98856.69;5152365;27;20082;-61
2022/08/23 08:41:04;;;;;;;23.90;4.82;;;;;;;29.89;100.00;98870.34;5152563;27;20057;-64
2022/08/23 08:43:43;;;;;;;16.35;4.53;;;;;;;31.20;100.00;98895.81;5152242;27;20047;-64
2022/08/23 08:46:18;;;;;;;19.23;4.53;;;;;;;29.08;100.00;98858.19;5152406;27;20597;-65
2022/08/23 08:48:50;;;;;;;18.27;4.07;;;;;;;29.36;100.00;98837.88;5152343;27;20074;-66
2022/08/23 08:51:32;;;;;;;14.75;4.40;;;;;;;29.35;100.00;98887.94;5152645;27;20497;-64
2022/08/23 08:54:00;;;;;;;15.75;3.75;;;;;;;30.29;100.00;98897.59;5152511;27;20466;-64
2022/08/23 08:56:29;;;;;;;12.90;3.60;;;;;;;30.69;100.00;98912.66;5152461;27;20137;-60
2022/08/23 08:59:01;;;;;;;14.82;4.32;;;;;;;31.07;100.00;98922.56;5152415;27;20459;-62
2022/08/23 09:01:30;;;;;;;13.55;3.85;;;;;;;30.50;100.00;98932.16;5152390;27;20051;-63
2022/08/23 09:03:57;;;;;;;14.45;4.22;;;;;;;30.36;100.00;98965.00;5152288;27;20176;-63
2022/08/23 09:06:29;;;;;;;13.20;3.92;;;;;;;30.23;100.00;98942.03;5152128;27;20071;-59
2022/08/23 09:09:14;;;;;;;16.75;3.63;;;;;;;30.35;100.00;98925.88;5151584;27;20054;-58
2022/08/23 09:11:55;;;;;;;9.93;3.60;;;;;;;31.06;100.00;98946.50;5152084;27;20085;-57
2022/08/23 09:14:52;;;;;;;17.58;3.72;;;;;;;31.78;100.00;98990.38;5152178;27;20219;-64
2022/08/23 09:17:26;;;;;;;7.97;3.67;;;;;;;31.31;100.00;98961.72;5151017;27;20062;-64
2022/08/23 09:19:59;;;;;;;12.93;3.47;;;;;;;31.11;100.00;98959.88;5151871;27;20042;-63
2022/08/23 09:22:35;;;;;;;16.00;3.50;;;;;;;29.57;100.00;98940.22;5152453;27;20046;-62
2022/08/23 09:25:02;;;;;;;12.80;3.38;;;;;;;30.30;100.00;98941.56;5151699;27;20737;-65
2022/08/23 09:27:29;;;;;;;14.50;3.83;;;;;;;29.33;100.00;98917.97;5151820;27;20082;-63
2022/08/23 09:29:58;;;;;;;17.45;3.95;;;;;;;29.94;100.00;98909.97;5151855;27;20055;-63
2022/08/23 09:32:31;;;;;;;13.98;3.80;;;;;;;30.08;100.00;98887.69;5151629;27;20051;-62
2022/08/23 09:35:16;;;;;;;14.70;3.88;;;;;;;29.74;100.00;98915.75;5151847;27;20057;-62
2022/08/23 09:37:58;;;;;;;18.23;3.38;;;;;;;29.69;100.00;98936.22;5151664;27;20133;-63
2022/08/23 09:40:35;;;;;;;15.02;4.05;;;;;;;29.40;100.00;98928.78;5151726;27;20046;-65
2022/08/23 09:43:11;;;;;;;14.57;3.58;;;;;;;29.88;100.00;98891.44;5151638;27;20052;-62
2022/08/23 09:45:41;;;;;;;15.07;3.72;;;;;;;29.37;100.00;98871.28;5151662;27;20172;-60
2022/08/23 09:48:13;;;;;;;13.10;3.45;;;;;;;29.12;100.00;98849.50;5151454;27;20054;-61
2022/08/23 09:50:53;;;;;;;17.10;3.92;;;;;;;28.57;100.00;98823.81;5151764;27;20047;-56
2022/08/23 09:53:26;;;;;;;20.67;3.80;;;;;;;28.29;100.00;98834.75;5151474;27;20058;-54
2022/08/23 09:55:56;;;;;;;17.40;4.10;;;;;;;28.06;100.00;98819.63;5151588;27;20075;-57
2022/08/23 09:58:30;;;;;;;15.20;4.15;;;;;;;28.33;100.00;98812.00;5151303;27;20099;-55
2022/08/23 10:01:11;;;;;;;13.07;3.70;;;;;;;28.68;100.00;98819.56;5151721;27;20093;-62
2022/08/23 10:03:39;;;;;;;15.30;3.95;;;;;;;28.41;100.00;98846.19;5151394;27;20050;-54
2022/08/23 10:06:08;;;;;;;10.82;3.83;;;;;;;28.77;100.00;98873.75;5151215;27;20050;-55
2022/08/23 10:08:37;;;;;;;19.17;4.28;;;;;;;28.95;100.00;98892.41;5151272;27;20556;-63
2022/08/23 10:11:19;;;;;;;17.88;3.95;;;;;;;29.13;100.00;98919.56;5151145;27;20051;-59
2022/08/23 10:13:45;;;;;;;12.25;3.50;;;;;;;28.86;100.00;98895.41;5151107;27;20146;-62
2022/08/23 10:16:18;;;;;;;25.60;3.88;;;;;;;29.57;100.00;98889.41;5151005;27;20086;-56
2022/08/23 10:18:53;;;;;;;19.90;3.83;;;;;;;29.60;100.00;98925.13;5151566;27;20146;-59
2022/08/23 10:21:24;;;;;;;17.33;3.83;;;;;;;29.43;100.00;98908.03;5154690;27;20089;-57
2022/08/23 10:24:06;;;;;;;11.80;3.83;;;;;;;30.36;100.00;98902.00;5154784;27;20054;-56
2022/08/23 10:26:34;;;;;;;14.75;3.63;;;;;;;29.75;100.00;98912.41;5154933;27;20098;-57
2022/08/23 10:32:16;;;;;;;19.35;4.45;;;;;;;30.23;100.00;98891.91;5117041;27;20497;-58
2022/08/23 10:34:56;;;;;;;15.80;3.67;;;;;;;30.06;100.00;98879.72;5154535;27;20458;-57
2022/08/23 10:37:34;;;;;;;22.15;3.97;;;;;;;29.57;100.00;98876.03;5154443;27;20050;-62
2022/08/23 10:40:09;;;;;;;17.75;3.55;;;;;;;30.19;100.00;98890.59;5154239;27;20058;-61
2022/08/23 10:42:42;;;;;;;20.88;4.30;;;;;;;29.23;100.00;98863.72;5154779;27;20158;-61
2022/08/23 10:45:18;;;;;;;13.52;3.40;;;;;;;29.41;100.00;98851.28;5155053;27;20383;-56
2022/08/23 10:47:58;;;;;;;16.08;3.75;;;;;;;29.57;100.00;98832.91;5154361;27;20478;-60
2022/08/23 10:50:27;;;;;;;23.83;4.03;;;;;;;29.43;100.00;98834.63;5154523;27;20130;-62
2022/08/23 10:53:01;;;;;;;19.38;4.80;;;;;;;29.75;100.00;98830.47;5154365;27;20047;-63
2022/08/23 10:55:35;;;;;;;20.23;4.10;;;;;;;29.10;100.00;98902.84;5154346;27;20102;-62
2022/08/23 10:58:04;;;;;;;25.63;3.97;;;;;;;29.26;100.00;98894.53;5154309;27;20106;-62
2022/08/23 11:00:33;;;;;;;27.23;5.05;;;;;;;29.49;100.00;98895.50;5154236;27;20046;-62
2022/08/23 11:03:09;;;;;;;26.30;4.00;;;;;;;29.79;100.00;98909.38;5154473;27;20138;-64
2022/08/23 11:05:37;;;;;;;22.05;3.60;;;;;;;30.17;100.00;98930.66;5154184;27;20560;-58
2022/08/23 11:08:07;;;;;;;22.65;3.65;;;;;;;29.85;100.00;98917.88;5154025;27;20051;-58
2022/08/23 11:10:44;;;;;;;35.60;3.67;;;;;;;30.36;100.00;98933.13;5154059;27;20046;-60
2022/08/23 11:13:21;;;;;;;15.30;3.50;;;;;;;30.05;100.00;98920.56;5153917;27;20082;-58
2022/08/23 11:15:57;;;;;;;22.15;3.72;;;;;;;29.50;100.00;98916.03;5154203;27;20137;-58
2022/08/23 11:18:39;;;;;;;23.25;3.60;;;;;;;29.86;100.00;98922.25;5154033;27;20059;-58
2022/08/23 11:21:11;;;;;;;29.42;4.32;;;;;;;29.80;100.00;98910.13;5151728;27;20055;-55
2022/08/23 11:23:52;;;;;;;29.50;3.50;;;;;;;29.91;100.00;98904.56;5153778;27;20145;-62
2022/08/23 11:27:03;;;;;;;23.60;3.70;;;;;;;29.99;100.00;98911.25;5153963;27;20053;-63
2022/08/23 11:29:32;;;;;;;27.35;3.50;;;;;;;29.99;100.00;98922.56;5049869;28;20049;-63
2022/08/23 11:32:04;;;;;;;23.48;3.33;;;;;;;30.03;100.00;98928.78;5049141;28;20048;-59
2022/08/23 11:34:41;;;;;;;36.07;4.83;;;;;;;30.23;100.00;98947.69;5049555;28;20052;-60
2022/08/23 11:37:28;;;;;;;43.65;5.25;;;;;;;29.78;100.00;99001.03;5049438;28;20311;-62